Chopin — ZDFE4 — position and weather

sailwx.info

Track history (hours):
 
Tides and Currents Weather Stations Pressure Air Temp Water Temp Dewpoint Dewpoint Depression Visibility Wind Speed Wind Dir Waves Ship Positions

Chopin

Last reported at 2014-Jul-31 04:04 UTC. Time now 2014-Aug-01 14:01 UTC.
Position N 58°43' E 017°52'.

Length 104 m; draft 5.7 m.

Type: Cargo ship. MMSI: 236099000.

Date/timePositionNaut miles runAvg speedWind from/ knotsBaromVisibWave heightAir tempDewpointWater temp
2014-Jul-31 04:04N 58°43' E 017°52'48 7.3
2014-Jul-30 21:32N 57°56' E 017°50'12 8.3
2014-Jul-30 20:04N 57°43' E 017°49'4 8.6
2014-Jul-30 19:32N 57°39' E 017°48'8 8.4
2014-Jul-30 18:33N 57°31' E 017°47'9 8.5
2014-Jul-30 17:34N 57°22' E 017°43'9 8.9
2014-Jul-30 16:33N 57°14' E 017°37'9 8.6
2014-Jul-30 15:33N 57°06' E 017°32'67 8.3
2014-Jul-30 07:25N 56°04' E 016°45'7 8.0
2014-Jul-30 06:33N 55°60' E 016°35'8 7.9
2014-Jul-30 05:33N 55°56' E 016°23'8 7.9
2014-Jul-30 04:33N 55°52' E 016°11'8 7.9
2014-Jul-30 03:33N 55°48' E 015°59'8 8.0
2014-Jul-30 02:34N 55°44' E 015°46'9 8.5
2014-Jul-30 01:33N 55°40' E 015°33'9 8.7
2014-Jul-30 00:33N 55°36' E 015°20'9 8.4
2014-Jul-29 23:28N 55°32' E 015°05'7 8.2
2014-Jul-29 22:33N 55°28' E 014°54'9 8.7
2014-Jul-29 21:33N 55°24' E 014°41'9 8.5
2014-Jul-29 20:33N 55°17' E 014°31'8 7.9
2014-Jul-29 19:33N 55°11' E 014°21'8 7.7
2014-Jul-29 18:34N 55°10' E 014°08'8 8.1
2014-Jul-29 17:33N 55°10' E 013°54'8 8.2
2014-Jul-29 16:33N 55°12' E 013°40'9 8.5
2014-Jul-29 15:33N 55°13' E 013°25'8 8.2
2014-Jul-29 14:33N 55°13' E 013°10'8 8.4
2014-Jul-29 13:34N 55°15' E 012°56'8 8.4
2014-Jul-29 12:33N 55°17' E 012°42'7 7.4
2014-Jul-29 11:33N 55°24' E 012°40'9 9.1
2014-Jul-29 10:33N 55°33' E 012°42'10 9.6
2014-Jul-29 09:33N 55°43' E 012°41'9 8.9
2014-Jul-29 08:33N 55°52' E 012°40'9 8.6
2014-Jul-29 07:33N 56°00' E 012°38'8 8.3
2014-Jul-29 06:33N 56°08' E 012°30'9 9.0
2014-Jul-29 05:33N 56°13' E 012°16'8 8.1
2014-Jul-29 04:33N 56°17' E 012°04'8 7.9
2014-Jul-29 03:33N 56°25' E 012°00'8 8.3
2014-Jul-29 02:33N 56°33' E 011°57'8 8.4
2014-Jul-29 01:33N 56°41' E 011°54'9 8.6
2014-Jul-29 00:33N 56°49' E 011°50'9 8.7
2014-Jul-28 23:33N 56°57' E 011°44'9 8.8
2014-Jul-28 22:32N 57°06' E 011°38'9 9.2
2014-Jul-28 21:33N 57°14' E 011°32'9 9.2
2014-Jul-28 20:33N 57°23' E 011°25'9 8.6
2014-Jul-28 19:33N 57°30' E 011°16'9 8.9
2014-Jul-28 18:33N 57°33' E 011°01'9 8.9
2014-Jul-28 17:34N 57°38' E 010°47'6 6.4
2014-Jul-28 16:33N 57°41' E 010°37'0 0.0
2014-Jul-28 15:33N 57°41' E 010°37'1 0.8
2014-Jul-28 14:34N 57°41' E 010°38'5 4.9
2014-Jul-28 13:34N 57°46' E 010°39'9 9.3
2014-Jul-28 12:33N 57°44' E 010°22'9 8.9
2014-Jul-28 11:33N 57°40' E 010°07'9 9.3
2014-Jul-28 10:34N 57°37' E 009°51'9 9.2
2014-Jul-28 09:32N 57°32' E 009°36'9 8.7
2014-Jul-28 08:33N 57°28' E 009°23'9 8.9
2014-Jul-28 07:33N 57°23' E 009°09'9 9.1
2014-Jul-28 06:33N 57°18' E 008°55'9 8.8
2014-Jul-28 05:32N 57°13' E 008°41'10 8.6
2014-Jul-28 04:25N 57°06' E 008°28'8 9.0
2014-Jul-28 03:32N 56°60' E 008°20'9 8.7
2014-Jul-28 02:33N 56°52' E 008°11'187 8.8
2014-Jul-27 05:27N 54°16' E 005°11'8 9.1
2014-Jul-27 04:33N 54°09' E 005°03'8 8.6
2014-Jul-27 03:34N 54°01' E 004°58'8 8.4
2014-Jul-27 02:34N 53°53' E 004°55'9 8.4
2014-Jul-27 01:31N 53°45' E 004°53'9 8.1
2014-Jul-27 00:25N 53°36' E 004°50'7 7.9
2014-Jul-26 23:33N 53°30' E 004°45'8 7.8
2014-Jul-26 22:34N 53°22' E 004°41'8 7.9
2014-Jul-26 21:34N 53°15' E 004°36'18 8.4
2014-Jul-26 19:22N 52°59' E 004°22'16 8.9
2014-Jul-26 17:34N 52°45' E 004°08'19 9.7
2014-Jul-26 15:34N 52°31' E 003°45'10 9.8
2014-Jul-26 14:34N 52°24' E 003°34'1010.2
2014-Jul-26 13:33N 52°17' E 003°22'35 8.7
2014-Jul-26 09:31N 51°51' E 002°44'7 7.2
2014-Jul-26 08:33N 51°46' E 002°37'7 6.8
2014-Jul-26 07:28N 51°40' E 002°29'6 7.0
2014-Jul-26 06:33N 51°35' E 002°23'8 7.8
2014-Jul-26 05:34N 51°29' E 002°14'8 8.0
2014-Jul-26 04:34N 51°22' E 002°08'9 8.6
2014-Jul-26 03:34N 51°14' E 002°04'9 9.1
2014-Jul-26 02:33N 51°10' E 001°52'1010.0
2014-Jul-26 01:33N 51°02' E 001°41'3110.3
2014-Jul-25 22:31N 50°36' E 001°13'10 9.8
2014-Jul-25 21:28N 50°30' E 001°00'9 9.8
2014-Jul-25 20:33N 50°27' E 000°47'1010.0
2014-Jul-25 19:34N 50°24' E 000°32'37 8.7
2014-Jul-25 15:20N 50°18' W 000°25'5 7.0
2014-Jul-25 14:33N 50°17' W 000°33'20 6.4
2014-Jul-25 11:27N 50°16' W 001°05'76 9.7
2014-Jul-25 03:33N 50°12' W 003°04'8 8.2
2014-Jul-25 02:34N 50°12' W 003°16'8 7.8
2014-Jul-25 01:34N 50°11' W 003°29'10 6.8
2014-Jul-25 00:06N 50°10' W 003°44'85 6.1
2014-Jul-24 10:14N 50°23' W 005°55'6 9.1
2014-Jul-24 09:33N 50°27' W 005°48'10 9.5
2014-Jul-24 08:33N 50°33' W 005°36'10 9.6
2014-Jul-24 07:33N 50°39' W 005°25'9 9.4
2014-Jul-24 06:33N 50°45' W 005°13'82 8.2
2014-Jul-23 20:33N 51°21' W 003°17'1110.8
2014-Jul-23 19:33N 51°26' W 003°01'1211.8
2014-Jul-23 18:33N 51°30' W 002°44'1 1.0
2014-Jul-23 17:34N 51°31' W 002°42'0 0.0
2014-Jul-23 16:29N 51°31' W 002°42'0 0.0
2014-Jul-23 15:32N 51°31' W 002°42'0 0.0
2014-Jul-23 14:32N 51°31' W 002°42'0 0.0
2014-Jul-23 13:32N 51°31' W 002°42'0 0.0
2014-Jul-23 12:32N 51°31' W 002°42'0 0.0
2014-Jul-23 11:32N 51°31' W 002°42'0 0.0
2014-Jul-23 10:32N 51°31' W 002°42'0 0.0
2014-Jul-23 09:32N 51°31' W 002°42'0 0.0
2014-Jul-23 08:32N 51°31' W 002°42'0 0.0
2014-Jul-23 07:31N 51°31' W 002°42'0 0.0
2014-Jul-23 06:31N 51°31' W 002°42'0 0.0
2014-Jul-23 05:31N 51°31' W 002°42'0 0.0
2014-Jul-23 04:31N 51°31' W 002°42'0 0.0
2014-Jul-23 03:31N 51°31' W 002°42'0 0.0
2014-Jul-23 02:28N 51°31' W 002°42'0 0.0
2014-Jul-23 01:31N 51°31' W 002°42'0 0.0
2014-Jul-23 00:31N 51°31' W 002°42'0 0.0
2014-Jul-22 23:31N 51°31' W 002°42'0 0.0
2014-Jul-22 22:31N 51°31' W 002°42'0 0.0
2014-Jul-22 21:31N 51°31' W 002°42'0 0.0
2014-Jul-22 20:28N 51°31' W 002°42'0 0.0
2014-Jul-22 19:28N 51°31' W 002°42'0 0.0
2014-Jul-22 18:31N 51°31' W 002°42'0 0.0
2014-Jul-22 17:31N 51°31' W 002°42'0 0.0
2014-Jul-22 16:28N 51°31' W 002°42'0 0.0
2014-Jul-22 15:28N 51°31' W 002°42'0 0.0
2014-Jul-22 14:31N 51°31' W 002°42'0 0.0
2014-Jul-22 13:31N 51°31' W 002°42'0 0.0
2014-Jul-22 12:31N 51°31' W 002°42'0 0.0
2014-Jul-22 11:31N 51°31' W 002°42'0 0.0
2014-Jul-22 10:31N 51°31' W 002°42'0 0.0
2014-Jul-22 09:31N 51°31' W 002°42'0 0.0
2014-Jul-22 08:31N 51°31' W 002°42'0 0.0
2014-Jul-22 07:31N 51°31' W 002°42'0 0.0
2014-Jul-22 06:31N 51°31' W 002°42'0 0.0
2014-Jul-22 05:28N 51°31' W 002°42'0 0.0
2014-Jul-22 04:31N 51°31' W 002°42'0 0.0
2014-Jul-22 03:31N 51°31' W 002°42'0 0.0
2014-Jul-22 01:25N 51°31' W 002°42'0 0.0
2014-Jul-22 00:28N 51°31' W 002°42'0 0.0
2014-Jul-21 22:31N 51°31' W 002°42'0 0.0
2014-Jul-21 21:31N 51°31' W 002°42'0 0.0
2014-Jul-21 20:31N 51°31' W 002°42'0 0.0
2014-Jul-21 20:16N 51°31' W 002°42'0 0.0
2014-Jul-21 19:31N 51°31' W 002°42'0 0.0
2014-Jul-21 18:31N 51°31' W 002°42'0 0.0
2014-Jul-21 17:34N 51°31' W 002°42'0 0.0
2014-Jul-21 16:33N 51°31' W 002°42'0 0.0
2014-Jul-21 15:33N 51°31' W 002°42'0 0.0
2014-Jul-21 14:33N 51°31' W 002°42'0 0.0
2014-Jul-21 13:33N 51°31' W 002°42'0 0.0
2014-Jul-21 12:33N 51°31' W 002°42'1 0.5
2014-Jul-21 11:33N 51°30' W 002°43'7 7.5
2014-Jul-21 10:33N 51°28' W 002°54'1212.0
2014-Jul-21 09:33N 51°21' W 003°10'10 7.8
2014-Jul-21 08:15N 51°22' W 003°27'0 0.0
2014-Jul-21 06:27N 51°22' W 003°27'  
Track history (hours):
 
Tides and Currents Weather Stations Pressure Air Temp Water Temp Dewpoint Dewpoint Depression Visibility Wind Speed Wind Dir Waves Ship Positions

Chopin

Last reported at 2014-Jul-31 04:04 UTC. Time now 2014-Aug-01 14:01 UTC.
Position N 58°43' E 017°52'.

Length 104 m; draft 5.7 m.

Type: Cargo ship. MMSI: 236099000.

Date/timePositionNaut miles runAvg speedWind from/ knotsBaromVisibWave heightAir tempDewpointWater temp
2014-Jul-31 04:04N 58°43' E 017°52'48 7.3
2014-Jul-30 21:32N 57°56' E 017°50'12 8.3
2014-Jul-30 20:04N 57°43' E 017°49'4 8.6
2014-Jul-30 19:32N 57°39' E 017°48'8 8.4
2014-Jul-30 18:33N 57°31' E 017°47'9 8.5
2014-Jul-30 17:34N 57°22' E 017°43'9 8.9
2014-Jul-30 16:33N 57°14' E 017°37'9 8.6
2014-Jul-30 15:33N 57°06' E 017°32'67 8.3
2014-Jul-30 07:25N 56°04' E 016°45'7 8.0
2014-Jul-30 06:33N 55°60' E 016°35'8 7.9
2014-Jul-30 05:33N 55°56' E 016°23'8 7.9
2014-Jul-30 04:33N 55°52' E 016°11'8 7.9
2014-Jul-30 03:33N 55°48' E 015°59'8 8.0
2014-Jul-30 02:34N 55°44' E 015°46'9 8.5
2014-Jul-30 01:33N 55°40' E 015°33'9 8.7
2014-Jul-30 00:33N 55°36' E 015°20'9 8.4
2014-Jul-29 23:28N 55°32' E 015°05'7 8.2
2014-Jul-29 22:33N 55°28' E 014°54'9 8.7
2014-Jul-29 21:33N 55°24' E 014°41'9 8.5
2014-Jul-29 20:33N 55°17' E 014°31'8 7.9
2014-Jul-29 19:33N 55°11' E 014°21'8 7.7
2014-Jul-29 18:34N 55°10' E 014°08'8 8.1
2014-Jul-29 17:33N 55°10' E 013°54'8 8.2
2014-Jul-29 16:33N 55°12' E 013°40'9 8.5
2014-Jul-29 15:33N 55°13' E 013°25'8 8.2
2014-Jul-29 14:33N 55°13' E 013°10'8 8.4
2014-Jul-29 13:34N 55°15' E 012°56'8 8.4
2014-Jul-29 12:33N 55°17' E 012°42'7 7.4
2014-Jul-29 11:33N 55°24' E 012°40'9 9.1
2014-Jul-29 10:33N 55°33' E 012°42'10 9.6
2014-Jul-29 09:33N 55°43' E 012°41'9 8.9
2014-Jul-29 08:33N 55°52' E 012°40'9 8.6
2014-Jul-29 07:33N 56°00' E 012°38'8 8.3
2014-Jul-29 06:33N 56°08' E 012°30'9 9.0
2014-Jul-29 05:33N 56°13' E 012°16'8 8.1
2014-Jul-29 04:33N 56°17' E 012°04'8 7.9
2014-Jul-29 03:33N 56°25' E 012°00'8 8.3
2014-Jul-29 02:33N 56°33' E 011°57'8 8.4
2014-Jul-29 01:33N 56°41' E 011°54'9 8.6
2014-Jul-29 00:33N 56°49' E 011°50'9 8.7
2014-Jul-28 23:33N 56°57' E 011°44'9 8.8
2014-Jul-28 22:32N 57°06' E 011°38'9 9.2
2014-Jul-28 21:33N 57°14' E 011°32'9 9.2
2014-Jul-28 20:33N 57°23' E 011°25'9 8.6
2014-Jul-28 19:33N 57°30' E 011°16'9 8.9
2014-Jul-28 18:33N 57°33' E 011°01'9 8.9
2014-Jul-28 17:34N 57°38' E 010°47'6 6.4
2014-Jul-28 16:33N 57°41' E 010°37'0 0.0
2014-Jul-28 15:33N 57°41' E 010°37'1 0.8
2014-Jul-28 14:34N 57°41' E 010°38'5 4.9
2014-Jul-28 13:34N 57°46' E 010°39'9 9.3
2014-Jul-28 12:33N 57°44' E 010°22'9 8.9
2014-Jul-28 11:33N 57°40' E 010°07'9 9.3
2014-Jul-28 10:34N 57°37' E 009°51'9 9.2
2014-Jul-28 09:32N 57°32' E 009°36'9 8.7
2014-Jul-28 08:33N 57°28' E 009°23'9 8.9
2014-Jul-28 07:33N 57°23' E 009°09'9 9.1
2014-Jul-28 06:33N 57°18' E 008°55'9 8.8
2014-Jul-28 05:32N 57°13' E 008°41'10 8.6
2014-Jul-28 04:25N 57°06' E 008°28'8 9.0
2014-Jul-28 03:32N 56°60' E 008°20'9 8.7
2014-Jul-28 02:33N 56°52' E 008°11'187 8.8
2014-Jul-27 05:27N 54°16' E 005°11'8 9.1
2014-Jul-27 04:33N 54°09' E 005°03'8 8.6
2014-Jul-27 03:34N 54°01' E 004°58'8 8.4
2014-Jul-27 02:34N 53°53' E 004°55'9 8.4
2014-Jul-27 01:31N 53°45' E 004°53'9 8.1
2014-Jul-27 00:25N 53°36' E 004°50'7 7.9
2014-Jul-26 23:33N 53°30' E 004°45'8 7.8
2014-Jul-26 22:34N 53°22' E 004°41'8 7.9
2014-Jul-26 21:34N 53°15' E 004°36'18 8.4
2014-Jul-26 19:22N 52°59' E 004°22'16 8.9
2014-Jul-26 17:34N 52°45' E 004°08'19 9.7
2014-Jul-26 15:34N 52°31' E 003°45'10 9.8
2014-Jul-26 14:34N 52°24' E 003°34'1010.2
2014-Jul-26 13:33N 52°17' E 003°22'35 8.7
2014-Jul-26 09:31N 51°51' E 002°44'7 7.2
2014-Jul-26 08:33N 51°46' E 002°37'7 6.8
2014-Jul-26 07:28N 51°40' E 002°29'6 7.0
2014-Jul-26 06:33N 51°35' E 002°23'8 7.8
2014-Jul-26 05:34N 51°29' E 002°14'8 8.0
2014-Jul-26 04:34N 51°22' E 002°08'9 8.6
2014-Jul-26 03:34N 51°14' E 002°04'9 9.1
2014-Jul-26 02:33N 51°10' E 001°52'1010.0
2014-Jul-26 01:33N 51°02' E 001°41'3110.3
2014-Jul-25 22:31N 50°36' E 001°13'10 9.8
2014-Jul-25 21:28N 50°30' E 001°00'9 9.8
2014-Jul-25 20:33N 50°27' E 000°47'1010.0
2014-Jul-25 19:34N 50°24' E 000°32'37 8.7
2014-Jul-25 15:20N 50°18' W 000°25'5 7.0
2014-Jul-25 14:33N 50°17' W 000°33'20 6.4
2014-Jul-25 11:27N 50°16' W 001°05'76 9.7
2014-Jul-25 03:33N 50°12' W 003°04'8 8.2
2014-Jul-25 02:34N 50°12' W 003°16'8 7.8
2014-Jul-25 01:34N 50°11' W 003°29'10 6.8
2014-Jul-25 00:06N 50°10' W 003°44'85 6.1
2014-Jul-24 10:14N 50°23' W 005°55'6 9.1
2014-Jul-24 09:33N 50°27' W 005°48'10 9.5
2014-Jul-24 08:33N 50°33' W 005°36'10 9.6
2014-Jul-24 07:33N 50°39' W 005°25'9 9.4
2014-Jul-24 06:33N 50°45' W 005°13'82 8.2
2014-Jul-23 20:33N 51°21' W 003°17'1110.8
2014-Jul-23 19:33N 51°26' W 003°01'1211.8
2014-Jul-23 18:33N 51°30' W 002°44'1 1.0
2014-Jul-23 17:34N 51°31' W 002°42'0 0.0
2014-Jul-23 16:29N 51°31' W 002°42'0 0.0
2014-Jul-23 15:32N 51°31' W 002°42'0 0.0
2014-Jul-23 14:32N 51°31' W 002°42'0 0.0
2014-Jul-23 13:32N 51°31' W 002°42'0 0.0
2014-Jul-23 12:32N 51°31' W 002°42'0 0.0
2014-Jul-23 11:32N 51°31' W 002°42'0 0.0
2014-Jul-23 10:32N 51°31' W 002°42'0 0.0
2014-Jul-23 09:32N 51°31' W 002°42'0 0.0
2014-Jul-23 08:32N 51°31' W 002°42'0 0.0
2014-Jul-23 07:31N 51°31' W 002°42'0 0.0
2014-Jul-23 06:31N 51°31' W 002°42'0 0.0
2014-Jul-23 05:31N 51°31' W 002°42'0 0.0
2014-Jul-23 04:31N 51°31' W 002°42'0 0.0
2014-Jul-23 03:31N 51°31' W 002°42'0 0.0
2014-Jul-23 02:28N 51°31' W 002°42'0 0.0
2014-Jul-23 01:31N 51°31' W 002°42'0 0.0
2014-Jul-23 00:31N 51°31' W 002°42'0 0.0
2014-Jul-22 23:31N 51°31' W 002°42'0 0.0
2014-Jul-22 22:31N 51°31' W 002°42'0 0.0
2014-Jul-22 21:31N 51°31' W 002°42'0 0.0
2014-Jul-22 20:28N 51°31' W 002°42'0 0.0
2014-Jul-22 19:28N 51°31' W 002°42'0 0.0
2014-Jul-22 18:31N 51°31' W 002°42'0 0.0
2014-Jul-22 17:31N 51°31' W 002°42'0 0.0
2014-Jul-22 16:28N 51°31' W 002°42'0 0.0
2014-Jul-22 15:28N 51°31' W 002°42'0 0.0
2014-Jul-22 14:31N 51°31' W 002°42'0 0.0
2014-Jul-22 13:31N 51°31' W 002°42'0 0.0
2014-Jul-22 12:31N 51°31' W 002°42'0 0.0
2014-Jul-22 11:31N 51°31' W 002°42'0 0.0
2014-Jul-22 10:31N 51°31' W 002°42'0 0.0
2014-Jul-22 09:31N 51°31' W 002°42'0 0.0
2014-Jul-22 08:31N 51°31' W 002°42'0 0.0
2014-Jul-22 07:31N 51°31' W 002°42'0 0.0
2014-Jul-22 06:31N 51°31' W 002°42'0 0.0
2014-Jul-22 05:28N 51°31' W 002°42'0 0.0
2014-Jul-22 04:31N 51°31' W 002°42'0 0.0
2014-Jul-22 03:31N 51°31' W 002°42'0 0.0
2014-Jul-22 01:25N 51°31' W 002°42'0 0.0
2014-Jul-22 00:28N 51°31' W 002°42'0 0.0
2014-Jul-21 22:31N 51°31' W 002°42'0 0.0
2014-Jul-21 21:31N 51°31' W 002°42'0 0.0
2014-Jul-21 20:31N 51°31' W 002°42'0 0.0
2014-Jul-21 20:16N 51°31' W 002°42'0 0.0
2014-Jul-21 19:31N 51°31' W 002°42'0 0.0
2014-Jul-21 18:31N 51°31' W 002°42'0 0.0
2014-Jul-21 17:34N 51°31' W 002°42'0 0.0
2014-Jul-21 16:33N 51°31' W 002°42'0 0.0
2014-Jul-21 15:33N 51°31' W 002°42'0 0.0
2014-Jul-21 14:33N 51°31' W 002°42'0 0.0
2014-Jul-21 13:33N 51°31' W 002°42'0 0.0
2014-Jul-21 12:33N 51°31' W 002°42'1 0.5
2014-Jul-21 11:33N 51°30' W 002°43'7 7.5
2014-Jul-21 10:33N 51°28' W 002°54'1212.0
2014-Jul-21 09:33N 51°21' W 003°10'10 7.8
2014-Jul-21 08:15N 51°22' W 003°27'0 0.0
2014-Jul-21 06:27N 51°22' W 003°27'  

Dump ship's entire track history